sensor_id;sensor_type;location;lat;lon;timestamp;temperature;humidity
24402;DHT22;12539;48.808;11.292;2023-06-24T00:01:49;19.50;94.20
24402;DHT22;12539;48.808;11.292;2023-06-24T00:04:14;19.50;94.10
24402;DHT22;12539;48.808;11.292;2023-06-24T00:06:44;19.50;94.10
24402;DHT22;12539;48.808;11.292;2023-06-24T00:09:09;19.50;94.10
24402;DHT22;12539;48.808;11.292;2023-06-24T00:11:35;19.50;94.10
24402;DHT22;12539;48.808;11.292;2023-06-24T00:14:01;19.50;94.10
24402;DHT22;12539;48.808;11.292;2023-06-24T00:16:26;19.50;94.10
24402;DHT22;12539;48.808;11.292;2023-06-24T00:18:55;19.40;94.10
24402;DHT22;12539;48.808;11.292;2023-06-24T00:21:25;19.40;94.40
24402;DHT22;12539;48.808;11.292;2023-06-24T00:23:55;19.40;94.10
24402;DHT22;12539;48.808;11.292;2023-06-24T00:26:21;19.40;94.10
24402;DHT22;12539;48.808;11.292;2023-06-24T00:28:46;19.40;94.20
24402;DHT22;12539;48.808;11.292;2023-06-24T00:31:12;19.30;94.20
24402;DHT22;12539;48.808;11.292;2023-06-24T00:33:37;19.30;94.20
24402;DHT22;12539;48.808;11.292;2023-06-24T00:36:03;19.30;94.40
24402;DHT22;12539;48.808;11.292;2023-06-24T00:38:29;19.30;94.50
24402;DHT22;12539;48.808;11.292;2023-06-24T00:40:58;19.30;94.50
24402;DHT22;12539;48.808;11.292;2023-06-24T00:43:23;19.30;94.50
24402;DHT22;12539;48.808;11.292;2023-06-24T00:45:49;19.30;94.40
24402;DHT22;12539;48.808;11.292;2023-06-24T00:48:15;19.30;94.40
24402;DHT22;12539;48.808;11.292;2023-06-24T00:50:40;19.30;94.50
24402;DHT22;12539;48.808;11.292;2023-06-24T00:53:10;19.30;94.60
24402;DHT22;12539;48.808;11.292;2023-06-24T00:55:37;19.30;94.60
24402;DHT22;12539;48.808;11.292;2023-06-24T00:58:02;19.30;94.60
24402;DHT22;12539;48.808;11.292;2023-06-24T01:00:29;19.30;94.50
24402;DHT22;12539;48.808;11.292;2023-06-24T01:02:54;19.30;94.50
24402;DHT22;12539;48.808;11.292;2023-06-24T01:05:22;19.20;94.50
24402;DHT22;12539;48.808;11.292;2023-06-24T01:07:49;19.30;94.50
24402;DHT22;12539;48.808;11.292;2023-06-24T01:10:20;19.20;94.60
24402;DHT22;12539;48.808;11.292;2023-06-24T01:12:45;19.30;94.60
24402;DHT22;12539;48.808;11.292;2023-06-24T01:15:11;19.30;94.60
24402;DHT22;12539;48.808;11.292;2023-06-24T01:20:10;19.30;95.00
24402;DHT22;12539;48.808;11.292;2023-06-24T01:22:43;19.20;95.20
24402;DHT22;12539;48.808;11.292;2023-06-24T01:28:03;19.20;95.70
24402;DHT22;12539;48.808;11.292;2023-06-24T01:32:58;19.10;96.50
24402;DHT22;12539;48.808;11.292;2023-06-24T01:35:25;19.10;96.80
24402;DHT22;12539;48.808;11.292;2023-06-24T01:37:54;19.10;97.00
24402;DHT22;12539;48.808;11.292;2023-06-24T01:40:21;19.00;97.20
24402;DHT22;12539;48.808;11.292;2023-06-24T01:42:48;19.00;97.40
24402;DHT22;12539;48.808;11.292;2023-06-24T01:45:15;19.00;97.70
24402;DHT22;12539;48.808;11.292;2023-06-24T01:47:43;19.00;97.90
24402;DHT22;12539;48.808;11.292;2023-06-24T01:50:09;19.00;98.00
24402;DHT22;12539;48.808;11.292;2023-06-24T01:52:35;18.90;98.30
24402;DHT22;12539;48.808;11.292;2023-06-24T01:55:01;19.00;98.50
24402;DHT22;12539;48.808;11.292;2023-06-24T01:57:29;19.00;98.70
24402;DHT22;12539;48.808;11.292;2023-06-24T01:59:56;19.00;98.70
24402;DHT22;12539;48.808;11.292;2023-06-24T02:02:22;19.00;98.90
24402;DHT22;12539;48.808;11.292;2023-06-24T02:04:48;19.00;99.00
24402;DHT22;12539;48.808;11.292;2023-06-24T02:07:15;19.00;99.00
24402;DHT22;12539;48.808;11.292;2023-06-24T02:09:41;19.00;99.00
24402;DHT22;12539;48.808;11.292;2023-06-24T02:12:09;19.00;99.00
24402;DHT22;12539;48.808;11.292;2023-06-24T02:14:35;19.00;99.00
24402;DHT22;12539;48.808;11.292;2023-06-24T02:17:03;19.00;99.10
24402;DHT22;12539;48.808;11.292;2023-06-24T02:19:30;19.00;99.10
24402;DHT22;12539;48.808;11.292;2023-06-24T02:21:56;19.00;99.20
24402;DHT22;12539;48.808;11.292;2023-06-24T02:24:23;19.00;99.60
24402;DHT22;12539;48.808;11.292;2023-06-24T02:26:48;19.00;99.40
24402;DHT22;12539;48.808;11.292;2023-06-24T02:29:14;18.90;99.90
24402;DHT22;12539;48.808;11.292;2023-06-24T02:31:40;18.90;99.90
24402;DHT22;12539;48.808;11.292;2023-06-24T02:34:06;18.80;99.90
24402;DHT22;12539;48.808;11.292;2023-06-24T02:36:31;18.80;99.90
24402;DHT22;12539;48.808;11.292;2023-06-24T02:38:57;18.80;99.90
24402;DHT22;12539;48.808;11.292;2023-06-24T02:41:23;18.90;99.90
24402;DHT22;12539;48.808;11.292;2023-06-24T02:43:48;18.90;99.90
24402;DHT22;12539;48.808;11.292;2023-06-24T02:46:14;18.90;99.90
24402;DHT22;12539;48.808;11.292;2023-06-24T02:48:40;18.90;99.90
24402;DHT22;12539;48.808;11.292;2023-06-24T02:51:06;18.90;99.90
24402;DHT22;12539;48.808;11.292;2023-06-24T02:53:32;18.90;99.90
24402;DHT22;12539;48.808;11.292;2023-06-24T02:55:58;18.90;99.90
24402;DHT22;12539;48.808;11.292;2023-06-24T02:58:24;19.00;99.90
24402;DHT22;12539;48.808;11.292;2023-06-24T03:00:58;18.90;99.90
24402;DHT22;12539;48.808;11.292;2023-06-24T03:03:24;19.00;99.90
24402;DHT22;12539;48.808;11.292;2023-06-24T03:05:50;19.00;99.90
24402;DHT22;12539;48.808;11.292;2023-06-24T03:08:15;18.90;99.90
24402;DHT22;12539;48.808;11.292;2023-06-24T03:10:41;19.00;99.90
24402;DHT22;12539;48.808;11.292;2023-06-24T03:13:07;19.00;99.90
24402;DHT22;12539;48.808;11.292;2023-06-24T03:15:33;19.00;99.90
24402;DHT22;12539;48.808;11.292;2023-06-24T03:17:58;19.00;99.90
24402;DHT22;12539;48.808;11.292;2023-06-24T03:20:24;19.00;99.90
24402;DHT22;12539;48.808;11.292;2023-06-24T03:22:50;19.00;99.90
24402;DHT22;12539;48.808;11.292;2023-06-24T03:25:17;19.00;99.90
24402;DHT22;12539;48.808;11.292;2023-06-24T03:27:43;19.00;99.90
24402;DHT22;12539;48.808;11.292;2023-06-24T03:30:10;19.00;99.90
24402;DHT22;12539;48.808;11.292;2023-06-24T03:32:36;19.00;99.90
24402;DHT22;12539;48.808;11.292;2023-06-24T03:35:02;19.00;99.90
24402;DHT22;12539;48.808;11.292;2023-06-24T03:37:28;19.00;99.90
24402;DHT22;12539;48.808;11.292;2023-06-24T03:39:53;18.90;99.90
24402;DHT22;12539;48.808;11.292;2023-06-24T03:42:19;18.90;99.90
24402;DHT22;12539;48.808;11.292;2023-06-24T03:44:44;18.90;99.90
24402;DHT22;12539;48.808;11.292;2023-06-24T03:47:10;18.90;99.90
24402;DHT22;12539;48.808;11.292;2023-06-24T03:49:35;18.90;99.90
24402;DHT22;12539;48.808;11.292;2023-06-24T03:52:01;19.00;99.90
24402;DHT22;12539;48.808;11.292;2023-06-24T03:54:26;19.00;99.90
24402;DHT22;12539;48.808;11.292;2023-06-24T03:56:52;19.00;99.90
24402;DHT22;12539;48.808;11.292;2023-06-24T03:59:18;19.00;99.90
24402;DHT22;12539;48.808;11.292;2023-06-24T04:01:43;19.00;99.90
24402;DHT22;12539;48.808;11.292;2023-06-24T04:04:09;19.00;99.90
24402;DHT22;12539;48.808;11.292;2023-06-24T04:06:34;19.00;99.90
24402;DHT22;12539;48.808;11.292;2023-06-24T04:09:00;19.10;99.90
24402;DHT22;12539;48.808;11.292;2023-06-24T04:11:25;19.10;99.90
24402;DHT22;12539;48.808;11.292;2023-06-24T04:13:51;19.10;99.90
24402;DHT22;12539;48.808;11.292;2023-06-24T04:16:16;19.20;99.90
24402;DHT22;12539;48.808;11.292;2023-06-24T04:18:42;19.20;99.90
24402;DHT22;12539;48.808;11.292;2023-06-24T04:21:07;19.20;99.90
24402;DHT22;12539;48.808;11.292;2023-06-24T04:23:33;19.30;99.90
24402;DHT22;12539;48.808;11.292;2023-06-24T04:25:59;19.30;99.90
24402;DHT22;12539;48.808;11.292;2023-06-24T04:28:24;19.30;99.90
24402;DHT22;12539;48.808;11.292;2023-06-24T04:30:50;19.40;99.70
24402;DHT22;12539;48.808;11.292;2023-06-24T04:33:16;19.40;99.50
24402;DHT22;12539;48.808;11.292;2023-06-24T04:35:41;19.40;99.20
24402;DHT22;12539;48.808;11.292;2023-06-24T04:38:07;19.50;99.00
24402;DHT22;12539;48.808;11.292;2023-06-24T04:40:32;19.50;98.90
24402;DHT22;12539;48.808;11.292;2023-06-24T04:42:58;19.60;98.80
24402;DHT22;12539;48.808;11.292;2023-06-24T04:45:24;19.60;98.70
24402;DHT22;12539;48.808;11.292;2023-06-24T04:47:49;19.60;98.50
24402;DHT22;12539;48.808;11.292;2023-06-24T04:50:17;19.60;98.50
24402;DHT22;12539;48.808;11.292;2023-06-24T04:52:43;19.60;98.30
24402;DHT22;12539;48.808;11.292;2023-06-24T04:55:10;19.60;98.20
24402;DHT22;12539;48.808;11.292;2023-06-24T04:57:35;19.70;98.00
24402;DHT22;12539;48.808;11.292;2023-06-24T05:00:01;19.70;97.80
24402;DHT22;12539;48.808;11.292;2023-06-24T05:02:26;19.80;97.70
24402;DHT22;12539;48.808;11.292;2023-06-24T05:04:52;19.80;97.60
24402;DHT22;12539;48.808;11.292;2023-06-24T05:07:18;19.80;97.80
24402;DHT22;12539;48.808;11.292;2023-06-24T05:09:45;19.90;97.30
24402;DHT22;12539;48.808;11.292;2023-06-24T05:12:11;19.90;97.10
24402;DHT22;12539;48.808;11.292;2023-06-24T05:14:37;19.90;97.10
24402;DHT22;12539;48.808;11.292;2023-06-24T05:17:03;19.90;97.20
24402;DHT22;12539;48.808;11.292;2023-06-24T05:19:28;19.90;97.60
24402;DHT22;12539;48.808;11.292;2023-06-24T05:21:54;19.90;97.30
24402;DHT22;12539;48.808;11.292;2023-06-24T05:24:19;19.80;97.50
24402;DHT22;12539;48.808;11.292;2023-06-24T05:26:47;19.80;97.60
24402;DHT22;12539;48.808;11.292;2023-06-24T05:29:13;19.80;97.60
24402;DHT22;12539;48.808;11.292;2023-06-24T05:31:39;19.80;97.60
24402;DHT22;12539;48.808;11.292;2023-06-24T05:34:05;20.00;97.60
24402;DHT22;12539;48.808;11.292;2023-06-24T05:36:31;20.00;97.40
24402;DHT22;12539;48.808;11.292;2023-06-24T05:38:56;20.10;97.30
24402;DHT22;12539;48.808;11.292;2023-06-24T05:41:22;20.20;97.10
24402;DHT22;12539;48.808;11.292;2023-06-24T05:43:47;20.30;96.90
24402;DHT22;12539;48.808;11.292;2023-06-24T05:46:13;20.30;96.70
24402;DHT22;12539;48.808;11.292;2023-06-24T05:48:38;20.50;96.80
24402;DHT22;12539;48.808;11.292;2023-06-24T05:51:04;20.70;96.60
24402;DHT22;12539;48.808;11.292;2023-06-24T05:53:29;21.30;97.30
24402;DHT22;12539;48.808;11.292;2023-06-24T05:55:55;22.30;95.10
24402;DHT22;12539;48.808;11.292;2023-06-24T05:58:20;23.90;93.10
24402;DHT22;12539;48.808;11.292;2023-06-24T06:00:46;25.70;88.30
24402;DHT22;12539;48.808;11.292;2023-06-24T06:03:12;27.40;84.60
24402;DHT22;12539;48.808;11.292;2023-06-24T06:05:39;28.80;78.10
24402;DHT22;12539;48.808;11.292;2023-06-24T06:08:04;30.00;63.40
24402;DHT22;12539;48.808;11.292;2023-06-24T06:10:30;30.60;60.20
24402;DHT22;12539;48.808;11.292;2023-06-24T06:12:55;31.50;59.70
24402;DHT22;12539;48.808;11.292;2023-06-24T06:15:21;32.40;55.50
24402;DHT22;12539;48.808;11.292;2023-06-24T06:17:49;33.20;56.50
24402;DHT22;12539;48.808;11.292;2023-06-24T06:20:14;33.80;54.60
24402;DHT22;12539;48.808;11.292;2023-06-24T06:22:40;34.30;53.00
24402;DHT22;12539;48.808;11.292;2023-06-24T06:25:05;34.70;51.00
24402;DHT22;12539;48.808;11.292;2023-06-24T06:27:31;35.10;47.80
24402;DHT22;12539;48.808;11.292;2023-06-24T06:29:57;35.40;47.80
24402;DHT22;12539;48.808;11.292;2023-06-24T06:32:22;35.90;46.00
24402;DHT22;12539;48.808;11.292;2023-06-24T06:34:51;36.30;41.80
24402;DHT22;12539;48.808;11.292;2023-06-24T06:37:19;36.30;41.40
24402;DHT22;12539;48.808;11.292;2023-06-24T06:39:45;36.20;41.90
24402;DHT22;12539;48.808;11.292;2023-06-24T06:42:10;36.50;43.20
24402;DHT22;12539;48.808;11.292;2023-06-24T06:44:36;37.00;42.50
24402;DHT22;12539;48.808;11.292;2023-06-24T06:47:01;37.40;41.60
24402;DHT22;12539;48.808;11.292;2023-06-24T06:49:27;37.90;40.10
24402;DHT22;12539;48.808;11.292;2023-06-24T06:51:53;37.90;40.00
24402;DHT22;12539;48.808;11.292;2023-06-24T06:54:19;37.40;40.20
24402;DHT22;12539;48.808;11.292;2023-06-24T06:56:45;36.90;44.30
24402;DHT22;12539;48.808;11.292;2023-06-24T06:59:10;36.50;47.20
24402;DHT22;12539;48.808;11.292;2023-06-24T07:01:36;36.40;44.90
24402;DHT22;12539;48.808;11.292;2023-06-24T07:04:01;36.00;41.00
24402;DHT22;12539;48.808;11.292;2023-06-24T07:06:27;36.30;39.40
24402;DHT22;12539;48.808;11.292;2023-06-24T07:08:53;36.10;39.90
24402;DHT22;12539;48.808;11.292;2023-06-24T07:11:18;35.30;40.70
24402;DHT22;12539;48.808;11.292;2023-06-24T07:13:44;35.30;38.90
24402;DHT22;12539;48.808;11.292;2023-06-24T07:16:11;34.10;40.30
24402;DHT22;12539;48.808;11.292;2023-06-24T07:18:36;32.70;41.50
24402;DHT22;12539;48.808;11.292;2023-06-24T07:21:02;31.20;42.50
24402;DHT22;12539;48.808;11.292;2023-06-24T07:23:28;30.00;45.20
24402;DHT22;12539;48.808;11.292;2023-06-24T07:25:56;29.10;47.10
24402;DHT22;12539;48.808;11.292;2023-06-24T07:28:24;28.40;47.60
24402;DHT22;12539;48.808;11.292;2023-06-24T07:30:49;27.80;48.10
24402;DHT22;12539;48.808;11.292;2023-06-24T07:33:15;27.40;49.00
24402;DHT22;12539;48.808;11.292;2023-06-24T07:35:40;27.20;50.30
24402;DHT22;12539;48.808;11.292;2023-06-24T07:38:06;27.30;50.30
24402;DHT22;12539;48.808;11.292;2023-06-24T07:40:31;27.40;50.40
24402;DHT22;12539;48.808;11.292;2023-06-24T07:42:57;27.40;50.20
24402;DHT22;12539;48.808;11.292;2023-06-24T07:45:23;27.50;50.70
24402;DHT22;12539;48.808;11.292;2023-06-24T07:47:49;27.50;50.50
24402;DHT22;12539;48.808;11.292;2023-06-24T07:50:14;27.50;50.70
24402;DHT22;12539;48.808;11.292;2023-06-24T07:58:10;27.20;51.20
24402;DHT22;12539;48.808;11.292;2023-06-24T08:00:36;26.90;51.40
24402;DHT22;12539;48.808;11.292;2023-06-24T08:03:02;26.70;52.10
24402;DHT22;12539;48.808;11.292;2023-06-24T08:05:27;26.50;52.30
24402;DHT22;12539;48.808;11.292;2023-06-24T08:07:53;26.30;52.50
24402;DHT22;12539;48.808;11.292;2023-06-24T08:10:19;26.10;52.60
24402;DHT22;12539;48.808;11.292;2023-06-24T08:12:44;25.90;53.40
24402;DHT22;12539;48.808;11.292;2023-06-24T08:15:10;25.70;53.50
24402;DHT22;12539;48.808;11.292;2023-06-24T08:17:35;25.50;53.50
24402;DHT22;12539;48.808;11.292;2023-06-24T08:20:01;25.40;53.90
24402;DHT22;12539;48.808;11.292;2023-06-24T08:22:28;25.30;54.30
24402;DHT22;12539;48.808;11.292;2023-06-24T08:24:53;25.30;54.60
24402;DHT22;12539;48.808;11.292;2023-06-24T08:27:19;25.30;54.70
24402;DHT22;12539;48.808;11.292;2023-06-24T08:29:44;25.20;55.00
24402;DHT22;12539;48.808;11.292;2023-06-24T08:32:10;25.20;55.20
24402;DHT22;12539;48.808;11.292;2023-06-24T08:34:35;25.20;55.20
24402;DHT22;12539;48.808;11.292;2023-06-24T08:37:01;25.30;55.20
24402;DHT22;12539;48.808;11.292;2023-06-24T08:39:26;25.30;55.20
24402;DHT22;12539;48.808;11.292;2023-06-24T08:41:52;25.50;54.70
24402;DHT22;12539;48.808;11.292;2023-06-24T08:44:18;25.70;54.70
24402;DHT22;12539;48.808;11.292;2023-06-24T08:46:43;25.80;53.70
24402;DHT22;12539;48.808;11.292;2023-06-24T08:49:17;25.90;54.10
24402;DHT22;12539;48.808;11.292;2023-06-24T08:51:58;26.00;54.30
24402;DHT22;12539;48.808;11.292;2023-06-24T08:54:24;26.10;54.60
24402;DHT22;12539;48.808;11.292;2023-06-24T08:56:50;26.20;54.40
24402;DHT22;12539;48.808;11.292;2023-06-24T08:59:16;26.20;54.40
24402;DHT22;12539;48.808;11.292;2023-06-24T09:01:46;26.30;53.80
24402;DHT22;12539;48.808;11.292;2023-06-24T09:07:23;26.20;53.50
24402;DHT22;12539;48.808;11.292;2023-06-24T09:09:48;26.30;53.90
24402;DHT22;12539;48.808;11.292;2023-06-24T09:12:14;26.30;53.90
24402;DHT22;12539;48.808;11.292;2023-06-24T09:14:40;26.40;54.10
24402;DHT22;12539;48.808;11.292;2023-06-24T09:17:06;26.50;53.20
24402;DHT22;12539;48.808;11.292;2023-06-24T09:19:32;26.50;53.10
24402;DHT22;12539;48.808;11.292;2023-06-24T09:22:05;26.40;52.30
24402;DHT22;12539;48.808;11.292;2023-06-24T09:24:35;26.30;53.00
24402;DHT22;12539;48.808;11.292;2023-06-24T09:27:01;26.20;53.20
24402;DHT22;12539;48.808;11.292;2023-06-24T09:29:35;26.10;53.20
24402;DHT22;12539;48.808;11.292;2023-06-24T09:32:04;25.90;53.60
24402;DHT22;12539;48.808;11.292;2023-06-24T09:34:30;25.90;54.00
24402;DHT22;12539;48.808;11.292;2023-06-24T09:36:56;25.70;54.20
24402;DHT22;12539;48.808;11.292;2023-06-24T09:39:22;25.60;54.80
24402;DHT22;12539;48.808;11.292;2023-06-24T09:41:54;25.60;55.30
24402;DHT22;12539;48.808;11.292;2023-06-24T09:44:19;25.50;54.80
24402;DHT22;12539;48.808;11.292;2023-06-24T09:46:45;25.50;53.80
24402;DHT22;12539;48.808;11.292;2023-06-24T09:49:11;25.40;54.70
24402;DHT22;12539;48.808;11.292;2023-06-24T09:51:42;25.50;55.00
24402;DHT22;12539;48.808;11.292;2023-06-24T09:54:08;25.50;52.80
24402;DHT22;12539;48.808;11.292;2023-06-24T09:56:40;25.50;53.50
24402;DHT22;12539;48.808;11.292;2023-06-24T09:59:11;25.40;54.00
24402;DHT22;12539;48.808;11.292;2023-06-24T10:01:41;25.50;53.90
24402;DHT22;12539;48.808;11.292;2023-06-24T10:04:06;25.60;52.80
24402;DHT22;12539;48.808;11.292;2023-06-24T10:06:33;25.70;51.50
24402;DHT22;12539;48.808;11.292;2023-06-24T10:08:59;25.80;52.80
24402;DHT22;12539;48.808;11.292;2023-06-24T10:11:25;25.80;52.60
24402;DHT22;12539;48.808;11.292;2023-06-24T10:13:51;25.70;52.90
24402;DHT22;12539;48.808;11.292;2023-06-24T10:16:16;25.60;53.10
24402;DHT22;12539;48.808;11.292;2023-06-24T10:18:43;25.40;53.40
24402;DHT22;12539;48.808;11.292;2023-06-24T10:21:09;25.40;54.20
24402;DHT22;12539;48.808;11.292;2023-06-24T10:23:39;25.30;54.10
24402;DHT22;12539;48.808;11.292;2023-06-24T10:26:25;25.20;53.70
24402;DHT22;12539;48.808;11.292;2023-06-24T10:37:13;25.10;55.00
24402;DHT22;12539;48.808;11.292;2023-06-24T10:39:46;25.20;53.00
24402;DHT22;12539;48.808;11.292;2023-06-24T10:45:00;25.20;53.00
24402;DHT22;12539;48.808;11.292;2023-06-24T10:47:26;25.30;53.50
24402;DHT22;12539;48.808;11.292;2023-06-24T10:49:52;25.30;53.00
24402;DHT22;12539;48.808;11.292;2023-06-24T10:52:21;25.30;52.10
24402;DHT22;12539;48.808;11.292;2023-06-24T10:54:47;25.30;53.10
24402;DHT22;12539;48.808;11.292;2023-06-24T10:57:13;25.40;53.10
24402;DHT22;12539;48.808;11.292;2023-06-24T10:59:42;25.30;51.70
24402;DHT22;12539;48.808;11.292;2023-06-24T11:02:08;25.20;51.70
24402;DHT22;12539;48.808;11.292;2023-06-24T11:04:47;25.10;52.00
24402;DHT22;12539;48.808;11.292;2023-06-24T11:07:13;25.20;51.60
24402;DHT22;12539;48.808;11.292;2023-06-24T11:09:41;25.20;52.80
24402;DHT22;12539;48.808;11.292;2023-06-24T11:12:10;25.20;53.80
24402;DHT22;12539;48.808;11.292;2023-06-24T11:14:38;25.20;53.30
24402;DHT22;12539;48.808;11.292;2023-06-24T11:17:04;25.20;53.80
24402;DHT22;12539;48.808;11.292;2023-06-24T11:22:15;25.20;53.90
24402;DHT22;12539;48.808;11.292;2023-06-24T11:24:40;25.20;53.10
24402;DHT22;12539;48.808;11.292;2023-06-24T11:27:06;25.10;52.30
24402;DHT22;12539;48.808;11.292;2023-06-24T11:29:32;25.10;52.40
24402;DHT22;12539;48.808;11.292;2023-06-24T11:31:58;25.10;52.30
24402;DHT22;12539;48.808;11.292;2023-06-24T11:34:24;25.00;51.40
24402;DHT22;12539;48.808;11.292;2023-06-24T11:36:49;25.00;52.40
24402;DHT22;12539;48.808;11.292;2023-06-24T11:39:24;25.10;51.10
24402;DHT22;12539;48.808;11.292;2023-06-24T11:41:50;25.10;51.50
24402;DHT22;12539;48.808;11.292;2023-06-24T11:44:19;25.20;52.10
24402;DHT22;12539;48.808;11.292;2023-06-24T11:46:48;25.20;51.20
24402;DHT22;12539;48.808;11.292;2023-06-24T11:49:13;25.20;50.70
24402;DHT22;12539;48.808;11.292;2023-06-24T11:51:49;25.20;49.20
24402;DHT22;12539;48.808;11.292;2023-06-24T11:54:16;25.10;50.40
24402;DHT22;12539;48.808;11.292;2023-06-24T11:56:42;25.10;50.50
24402;DHT22;12539;48.808;11.292;2023-06-24T11:59:19;25.10;50.50
24402;DHT22;12539;48.808;11.292;2023-06-24T12:01:45;25.20;49.70
24402;DHT22;12539;48.808;11.292;2023-06-24T12:04:13;25.20;48.30
24402;DHT22;12539;48.808;11.292;2023-06-24T12:06:42;25.30;48.60
24402;DHT22;12539;48.808;11.292;2023-06-24T12:09:08;25.30;46.80
24402;DHT22;12539;48.808;11.292;2023-06-24T12:11:34;25.30;48.50
24402;DHT22;12539;48.808;11.292;2023-06-24T12:14:00;25.30;47.30
24402;DHT22;12539;48.808;11.292;2023-06-24T12:16:25;25.20;47.70
24402;DHT22;12539;48.808;11.292;2023-06-24T12:18:52;25.30;48.00
24402;DHT22;12539;48.808;11.292;2023-06-24T12:21:17;25.20;48.70
24402;DHT22;12539;48.808;11.292;2023-06-24T12:23:43;25.20;48.60
24402;DHT22;12539;48.808;11.292;2023-06-24T12:26:09;25.20;49.60
24402;DHT22;12539;48.808;11.292;2023-06-24T12:28:35;25.30;49.00
24402;DHT22;12539;48.808;11.292;2023-06-24T12:31:00;25.30;47.90
24402;DHT22;12539;48.808;11.292;2023-06-24T12:33:26;25.50;49.10
24402;DHT22;12539;48.808;11.292;2023-06-24T12:35:51;25.60;49.40
24402;DHT22;12539;48.808;11.292;2023-06-24T12:38:17;25.50;50.00
24402;DHT22;12539;48.808;11.292;2023-06-24T12:40:42;25.50;49.70
24402;DHT22;12539;48.808;11.292;2023-06-24T12:43:08;25.50;50.00
24402;DHT22;12539;48.808;11.292;2023-06-24T12:45:34;25.30;50.50
24402;DHT22;12539;48.808;11.292;2023-06-24T12:47:59;25.20;49.10
24402;DHT22;12539;48.808;11.292;2023-06-24T12:50:25;25.20;50.20
24402;DHT22;12539;48.808;11.292;2023-06-24T12:52:50;25.30;49.90
24402;DHT22;12539;48.808;11.292;2023-06-24T12:55:16;25.40;47.90
24402;DHT22;12539;48.808;11.292;2023-06-24T12:57:42;25.40;47.60
24402;DHT22;12539;48.808;11.292;2023-06-24T13:00:08;25.50;48.30
24402;DHT22;12539;48.808;11.292;2023-06-24T13:02:34;25.50;48.30
24402;DHT22;12539;48.808;11.292;2023-06-24T13:04:59;25.60;48.40
24402;DHT22;12539;48.808;11.292;2023-06-24T13:07:25;25.60;48.00
24402;DHT22;12539;48.808;11.292;2023-06-24T13:09:50;25.60;47.00
24402;DHT22;12539;48.808;11.292;2023-06-24T13:12:16;25.70;47.10
24402;DHT22;12539;48.808;11.292;2023-06-24T13:14:41;25.80;47.60
24402;DHT22;12539;48.808;11.292;2023-06-24T13:17:07;25.90;47.60
24402;DHT22;12539;48.808;11.292;2023-06-24T13:19:32;25.90;48.00
24402;DHT22;12539;48.808;11.292;2023-06-24T13:21:58;25.90;47.70
24402;DHT22;12539;48.808;11.292;2023-06-24T13:24:24;25.90;48.00
24402;DHT22;12539;48.808;11.292;2023-06-24T13:26:51;25.80;48.10
24402;DHT22;12539;48.808;11.292;2023-06-24T13:29:16;25.60;49.00
24402;DHT22;12539;48.808;11.292;2023-06-24T13:31:42;25.50;49.40
24402;DHT22;12539;48.808;11.292;2023-06-24T13:34:07;25.50;49.10
24402;DHT22;12539;48.808;11.292;2023-06-24T13:36:34;25.50;48.70
24402;DHT22;12539;48.808;11.292;2023-06-24T13:39:03;25.50;47.90
24402;DHT22;12539;48.808;11.292;2023-06-24T13:41:29;25.70;47.30
24402;DHT22;12539;48.808;11.292;2023-06-24T13:43:57;25.90;47.20
24402;DHT22;12539;48.808;11.292;2023-06-24T13:46:23;26.20;46.90
24402;DHT22;12539;48.808;11.292;2023-06-24T13:48:49;26.30;46.50
24402;DHT22;12539;48.808;11.292;2023-06-24T13:51:15;26.40;46.20
24402;DHT22;12539;48.808;11.292;2023-06-24T13:53:41;26.40;45.70
24402;DHT22;12539;48.808;11.292;2023-06-24T13:56:06;26.40;45.80
24402;DHT22;12539;48.808;11.292;2023-06-24T13:58:32;26.40;45.20
24402;DHT22;12539;48.808;11.292;2023-06-24T14:00:58;26.40;44.70
24402;DHT22;12539;48.808;11.292;2023-06-24T14:03:23;26.30;45.10
24402;DHT22;12539;48.808;11.292;2023-06-24T14:05:49;26.20;45.00
24402;DHT22;12539;48.808;11.292;2023-06-24T14:08:14;26.20;45.10
24402;DHT22;12539;48.808;11.292;2023-06-24T14:10:40;26.20;45.40
24402;DHT22;12539;48.808;11.292;2023-06-24T14:13:05;26.30;46.40
24402;DHT22;12539;48.808;11.292;2023-06-24T14:15:31;26.30;46.00
24402;DHT22;12539;48.808;11.292;2023-06-24T14:17:57;26.30;44.80
24402;DHT22;12539;48.808;11.292;2023-06-24T14:20:23;26.30;45.00
24402;DHT22;12539;48.808;11.292;2023-06-24T14:22:50;26.10;44.80
24402;DHT22;12539;48.808;11.292;2023-06-24T14:25:16;26.00;45.00
24402;DHT22;12539;48.808;11.292;2023-06-24T14:27:41;25.90;45.50
24402;DHT22;12539;48.808;11.292;2023-06-24T14:30:07;25.70;46.20
24402;DHT22;12539;48.808;11.292;2023-06-24T14:32:33;25.70;46.70
24402;DHT22;12539;48.808;11.292;2023-06-24T14:34:58;25.50;47.40
24402;DHT22;12539;48.808;11.292;2023-06-24T14:37:24;25.50;46.80
24402;DHT22;12539;48.808;11.292;2023-06-24T14:39:49;25.30;45.90
24402;DHT22;12539;48.808;11.292;2023-06-24T14:42:15;25.30;46.50
24402;DHT22;12539;48.808;11.292;2023-06-24T14:44:40;25.30;46.80
24402;DHT22;12539;48.808;11.292;2023-06-24T14:47:06;25.30;46.40
24402;DHT22;12539;48.808;11.292;2023-06-24T14:49:31;25.40;45.80
24402;DHT22;12539;48.808;11.292;2023-06-24T14:51:57;25.40;45.60
24402;DHT22;12539;48.808;11.292;2023-06-24T14:54:23;25.50;45.50
24402;DHT22;12539;48.808;11.292;2023-06-24T14:56:48;25.70;46.00
24402;DHT22;12539;48.808;11.292;2023-06-24T14:59:14;25.80;45.50
24402;DHT22;12539;48.808;11.292;2023-06-24T15:01:39;25.90;44.50
24402;DHT22;12539;48.808;11.292;2023-06-24T15:04:05;25.90;43.90
24402;DHT22;12539;48.808;11.292;2023-06-24T15:06:30;26.00;44.10
24402;DHT22;12539;48.808;11.292;2023-06-24T15:08:56;26.10;43.90
24402;DHT22;12539;48.808;11.292;2023-06-24T15:11:21;26.10;44.00
24402;DHT22;12539;48.808;11.292;2023-06-24T15:13:47;26.00;44.80
24402;DHT22;12539;48.808;11.292;2023-06-24T15:16:12;26.00;43.80
24402;DHT22;12539;48.808;11.292;2023-06-24T15:18:47;25.90;44.90
24402;DHT22;12539;48.808;11.292;2023-06-24T15:21:13;25.80;45.10
24402;DHT22;12539;48.808;11.292;2023-06-24T15:23:39;25.70;45.50
24402;DHT22;12539;48.808;11.292;2023-06-24T15:26:04;25.70;44.80
24402;DHT22;12539;48.808;11.292;2023-06-24T15:28:30;25.50;44.60
24402;DHT22;12539;48.808;11.292;2023-06-24T15:30:55;25.40;44.70
24402;DHT22;12539;48.808;11.292;2023-06-24T15:33:21;25.30;45.40
24402;DHT22;12539;48.808;11.292;2023-06-24T15:35:47;25.30;45.70
24402;DHT22;12539;48.808;11.292;2023-06-24T15:38:12;25.30;45.00
24402;DHT22;12539;48.808;11.292;2023-06-24T15:40:41;25.30;44.60